Time;durP1;ratioP1;P1;durP2;ratioP2;P2;SDS_P1;SDS_P2;PMS_P1;PMS_P2;Temp;Humidity;BMP_temperature;BMP_pressure;BME280_temperature;BME280_humidity;BME280_pressure;Samples;Min_cycle;Max_cycle;Signal;HPM_P1;HPM_P2
2022/10/14 00:02:25;;;;;;;48.08;23.65;;;12.30;99.90;;;;;;5051876;28;20282;-62
2022/10/14 00:04:50;;;;;;;76.95;27.23;;;12.30;99.90;;;;;;5052439;28;20059;-63
2022/10/14 00:07:16;;;;;;;38.63;22.77;;;12.20;99.90;;;;;;5052432;28;20033;-63
2022/10/14 00:09:41;;;;;;;57.53;26.08;;;12.30;99.90;;;;;;5052566;28;20052;-62
2022/10/14 00:12:07;;;;;;;64.72;26.70;;;12.30;99.90;;;;;;5052428;28;20120;-62
2022/10/14 00:14:32;;;;;;;50.33;27.00;;;12.30;99.90;;;;;;5052513;28;20037;-63
2022/10/14 00:16:58;;;;;;;62.15;28.92;;;12.30;99.90;;;;;;5052639;28;20094;-62
2022/10/14 00:19:24;;;;;;;68.95;29.55;;;12.30;99.90;;;;;;5051889;28;20119;-62
2022/10/14 00:21:49;;;;;;;56.05;29.23;;;12.20;99.90;;;;;;5052424;28;20091;-62
2022/10/14 00:24:16;;;;;;;53.63;27.60;;;12.20;99.90;;;;;;5051165;28;20033;-62
2022/10/14 00:26:42;;;;;;;107.32;31.45;;;12.20;99.90;;;;;;5051768;28;20037;-62
2022/10/14 00:29:12;;;;;;;56.05;26.08;;;12.20;99.90;;;;;;5051336;28;20068;-63
2022/10/14 00:31:37;;;;;;;43.80;23.25;;;12.10;99.90;;;;;;5051755;28;20037;-62
2022/10/14 00:34:03;;;;;;;164.15;27.23;;;12.20;99.90;;;;;;5051577;28;20394;-63
2022/10/14 00:36:29;;;;;;;150.05;25.27;;;12.10;99.90;;;;;;5051980;28;20448;-62
2022/10/14 00:38:55;;;;;;;75.82;25.73;;;12.10;99.90;;;;;;5052095;28;20043;-62
2022/10/14 00:41:25;;;;;;;120.97;27.17;;;12.10;99.90;;;;;;5051567;28;20378;-62
2022/10/14 00:43:56;;;;;;;140.88;26.30;;;12.00;99.90;;;;;;5051755;28;20071;-63
2022/10/14 00:46:23;;;;;;;118.93;26.85;;;12.00;99.90;;;;;;5050761;28;20060;-64
2022/10/14 00:48:49;;;;;;;131.50;26.92;;;11.90;99.90;;;;;;5051999;28;20120;-63
2022/10/14 00:51:16;;;;;;;194.25;29.30;;;11.90;99.90;;;;;;5050780;28;20071;-62
2022/10/14 00:53:43;;;;;;;181.75;26.98;;;11.90;99.90;;;;;;5051379;28;20029;-63
2022/10/14 00:56:10;;;;;;;203.63;30.83;;;11.90;99.90;;;;;;5051883;28;20152;-62
2022/10/14 00:58:37;;;;;;;52.13;24.20;;;11.90;99.90;;;;;;5051640;28;20036;-63
2022/10/14 01:01:02;;;;;;;163.02;30.67;;;11.90;99.90;;;;;;5051237;28;20055;-64
2022/10/14 01:03:28;;;;;;;280.52;35.72;;;11.90;99.90;;;;;;5050662;28;20048;-62
2022/10/14 01:06:08;;;;;;;352.52;41.47;;;11.90;99.90;;;;;;5051909;28;20036;-64
2022/10/14 01:08:41;;;;;;;269.88;33.35;;;11.80;99.90;;;;;;5051630;28;20063;-63
2022/10/14 01:11:14;;;;;;;241.25;32.45;;;11.80;99.90;;;;;;5051565;28;20117;-62
2022/10/14 01:13:52;;;;;;;415.55;45.45;;;11.80;99.90;;;;;;5051242;28;20671;-62
2022/10/14 01:16:41;;;;;;;128.35;26.02;;;11.70;99.90;;;;;;5051928;28;20067;-63
2022/10/14 01:19:23;;;;;;;153.10;29.00;;;11.70;99.90;;;;;;5051541;28;20048;-63
2022/10/14 01:21:59;;;;;;;284.50;30.35;;;11.70;99.90;;;;;;5051766;28;20055;-64
2022/10/14 01:24:51;;;;;;;114.13;26.58;;;11.70;99.90;;;;;;5051008;28;20362;-62
2022/10/14 01:27:55;;;;;;;185.93;27.98;;;11.70;99.90;;;;;;5051004;28;20041;-62
2022/10/14 01:30:22;;;;;;;205.40;31.95;;;11.70;99.90;;;;;;5050829;28;20060;-63
2022/10/14 01:33:07;;;;;;;136.00;28.42;;;11.60;99.90;;;;;;5050988;28;20040;-64
2022/10/14 01:35:38;;;;;;;;;;;11.60;99.90;;;;;;5051304;28;20060;-64
2022/10/14 01:38:24;;;;;;;341.00;40.45;;;11.50;99.90;;;;;;5050778;28;20023;-63
2022/10/14 01:41:01;;;;;;;290.42;37.70;;;11.50;99.90;;;;;;5050485;28;20064;-62
2022/10/14 01:43:30;;;;;;;258.80;32.58;;;11.40;99.90;;;;;;5050641;28;20036;-62
2022/10/14 01:45:58;;;;;;;120.22;25.67;;;11.30;99.90;;;;;;5050990;28;20414;-61
2022/10/14 01:48:29;;;;;;;234.50;29.45;;;11.30;99.90;;;;;;5050905;28;20045;-62
2022/10/14 01:50:58;;;;;;;297.30;29.88;;;11.20;99.90;;;;;;5050085;28;20457;-62
2022/10/14 01:53:29;;;;;;;293.77;29.98;;;11.10;99.90;;;;;;5049411;28;20458;-63
2022/10/14 01:55:56;;;;;;;260.08;29.33;;;11.10;99.90;;;;;;5050233;28;20083;-62
2022/10/14 01:58:25;;;;;;;111.88;21.67;;;11.00;99.90;;;;;;5050590;28;20060;-63
2022/10/14 02:00:51;;;;;;;187.73;23.92;;;10.90;99.90;;;;;;5050583;28;20037;-62
2022/10/14 02:03:16;;;;;;;250.88;26.52;;;10.90;99.90;;;;;;5049161;28;20036;-62
2022/10/14 02:05:49;;;;;;;231.73;23.13;;;10.80;99.90;;;;;;5050675;28;20032;-63
2022/10/14 02:08:55;;;;;;;145.18;18.73;;;10.80;99.90;;;;;;5050710;28;20434;-63
2022/10/14 02:11:22;;;;;;;190.70;20.23;;;10.70;99.90;;;;;;5048806;28;20056;-62
2022/10/14 02:14:10;;;;;;;184.45;22.33;;;10.60;99.90;;;;;;5050346;28;20049;-62
2022/10/14 02:16:48;;;;;;;121.88;19.67;;;10.60;99.90;;;;;;5050372;28;20036;-62
2022/10/14 02:19:47;;;;;;;122.38;19.15;;;10.60;99.90;;;;;;5050227;28;20051;-62
2022/10/14 02:22:42;;;;;;;223.80;23.85;;;10.60;99.90;;;;;;5045559;28;20056;-63
2022/10/14 02:25:15;;;;;;;96.28;17.35;;;10.60;99.90;;;;;;5050257;28;20466;-62
2022/10/14 02:27:44;;;;;;;108.38;17.88;;;10.60;99.90;;;;;;5050295;28;20077;-63
2022/10/14 02:30:10;;;;;;;94.50;15.90;;;10.60;99.90;;;;;;5050161;28;20428;-62
2022/10/14 02:32:37;;;;;;;278.67;26.70;;;10.60;99.90;;;;;;5050051;28;20041;-62
2022/10/14 02:35:05;;;;;;;102.15;16.67;;;10.60;99.90;;;;;;5050386;28;20045;-63
2022/10/14 02:37:32;;;;;;;164.80;22.10;;;10.60;99.90;;;;;;5050122;28;20045;-62
2022/10/14 02:40:12;;;;;;;82.82;16.45;;;10.60;99.90;;;;;;5049639;28;20037;-62
2022/10/14 02:42:38;;;;;;;234.68;25.02;;;10.60;99.90;;;;;;5049620;28;20486;-63
2022/10/14 02:45:05;;;;;;;137.40;18.15;;;10.60;99.90;;;;;;5050057;28;20072;-62
2022/10/14 02:47:31;;;;;;;204.52;25.08;;;10.70;99.90;;;;;;5050155;28;20041;-62
2022/10/14 02:49:56;;;;;;;135.75;19.92;;;10.70;99.90;;;;;;5049908;28;20063;-62
2022/10/14 02:52:22;;;;;;;169.25;21.02;;;10.70;99.90;;;;;;5049842;28;20446;-63
2022/10/14 02:54:47;;;;;;;154.23;18.63;;;10.70;99.90;;;;;;5049771;28;20438;-62
2022/10/14 02:57:13;;;;;;;124.13;17.63;;;10.70;99.90;;;;;;5032357;28;20045;-62
2022/10/14 02:59:39;;;;;;;106.65;15.48;;;10.60;99.90;;;;;;5049829;28;20033;-62
2022/10/14 03:02:06;;;;;;;107.88;15.05;;;10.60;99.90;;;;;;5049806;28;20048;-62
2022/10/14 03:04:32;;;;;;;78.25;15.68;;;10.60;99.90;;;;;;5049967;28;20390;-62
2022/10/14 03:06:57;;;;;;;142.77;16.52;;;10.60;99.90;;;;;;5049631;28;20033;-62
2022/10/14 03:09:23;;;;;;;89.97;14.77;;;10.60;99.90;;;;;;5052252;28;20047;-66
2022/10/14 03:11:48;;;;;;;93.47;15.95;;;10.70;99.90;;;;;;5053854;28;20040;-62
2022/10/14 03:14:14;;;;;;;113.10;13.23;;;10.60;99.90;;;;;;5053726;28;20043;-62
2022/10/14 03:16:40;;;;;;;106.95;13.65;;;10.60;99.90;;;;;;5053508;28;20041;-62
2022/10/14 03:19:05;;;;;;;113.45;13.98;;;10.60;99.90;;;;;;5053647;28;20152;-62
2022/10/14 03:21:31;;;;;;;92.30;16.52;;;10.60;99.90;;;;;;5053733;28;20465;-62
2022/10/14 03:23:56;;;;;;;79.43;13.68;;;10.60;99.90;;;;;;5053102;28;20041;-62
2022/10/14 03:26:22;;;;;;;83.45;12.80;;;10.60;99.90;;;;;;5053592;28;20044;-63
2022/10/14 03:28:48;;;;;;;98.75;15.77;;;10.60;99.90;;;;;;5053624;28;20144;-62
2022/10/14 03:31:13;;;;;;;73.65;15.23;;;10.60;99.90;;;;;;5053015;28;20796;-63
2022/10/14 03:33:39;;;;;;;74.72;15.55;;;10.70;99.90;;;;;;5053089;28;20049;-62
2022/10/14 03:36:05;;;;;;;52.95;12.35;;;10.60;99.90;;;;;;5053197;28;20037;-62
2022/10/14 03:38:30;;;;;;;82.55;15.88;;;10.70;99.90;;;;;;5052985;28;20116;-62
2022/10/14 03:40:56;;;;;;;100.05;16.20;;;10.70;99.90;;;;;;5052590;28;20045;-62
2022/10/14 03:43:22;;;;;;;68.15;17.88;;;10.60;99.90;;;;;;5052544;28;20053;-62
2022/10/14 03:45:47;;;;;;;69.18;17.88;;;10.60;99.90;;;;;;5053239;28;20474;-63
2022/10/14 03:48:13;;;;;;;72.03;16.98;;;10.70;99.90;;;;;;5052752;28;20041;-63
2022/10/14 03:50:39;;;;;;;93.30;19.58;;;10.60;99.90;;;;;;5052621;28;20418;-62
2022/10/14 03:53:04;;;;;;;164.70;22.15;;;10.70;99.90;;;;;;5051378;28;20106;-62
2022/10/14 03:55:30;;;;;;;161.45;23.40;;;10.60;99.90;;;;;;5053252;28;20072;-62
2022/10/14 03:57:55;;;;;;;85.18;17.98;;;10.60;99.90;;;;;;5053170;28;20032;-62
2022/10/14 04:00:21;;;;;;;127.30;22.15;;;10.60;99.90;;;;;;5052741;28;20515;-62
2022/10/14 04:02:47;;;;;;;51.65;18.35;;;10.60;99.90;;;;;;5052812;28;20036;-62
2022/10/14 04:05:13;;;;;;;100.97;21.42;;;10.70;99.90;;;;;;5053026;28;20032;-62
2022/10/14 04:07:38;;;;;;;67.85;17.95;;;10.60;99.90;;;;;;5052850;28;20033;-62
2022/10/14 04:10:05;;;;;;;73.47;18.40;;;10.60;99.90;;;;;;5052088;28;20131;-62
2022/10/14 04:12:31;;;;;;;60.92;18.45;;;10.70;99.90;;;;;;5051570;28;20599;-62
2022/10/14 04:14:57;;;;;;;58.45;16.95;;;10.70;99.90;;;;;;5051944;28;20029;-62
2022/10/14 04:17:25;;;;;;;48.58;18.70;;;10.70;99.90;;;;;;5052666;28;20418;-62
2022/10/14 04:19:52;;;;;;;53.00;19.58;;;10.60;99.90;;;;;;5052380;28;20037;-63
2022/10/14 04:22:18;;;;;;;46.60;19.00;;;10.60;99.90;;;;;;5051997;28;20365;-63
2022/10/14 04:24:44;;;;;;;43.28;20.30;;;10.60;99.90;;;;;;5052583;28;20051;-63
2022/10/14 04:27:09;;;;;;;60.35;21.85;;;10.60;99.90;;;;;;5052547;28;20049;-62
2022/10/14 04:29:35;;;;;;;43.90;18.98;;;10.60;99.90;;;;;;5051759;28;20044;-62
2022/10/14 04:32:00;;;;;;;37.03;18.63;;;10.60;99.90;;;;;;5052326;28;20148;-62
2022/10/14 04:34:26;;;;;;;32.97;18.40;;;10.60;99.90;;;;;;5052364;28;20037;-62
2022/10/14 04:36:52;;;;;;;53.65;20.20;;;10.70;99.90;;;;;;5051127;28;20044;-62
2022/10/14 04:39:18;;;;;;;60.90;22.20;;;10.60;99.90;;;;;;5052182;28;20051;-63
2022/10/14 04:41:44;;;;;;;43.47;19.13;;;10.60;99.90;;;;;;5050085;28;20434;-61
2022/10/14 04:44:09;;;;;;;55.38;20.75;;;10.60;99.90;;;;;;5051695;28;20271;-62
2022/10/14 04:46:35;;;;;;;48.90;20.60;;;10.70;99.90;;;;;;5051866;28;20061;-61
2022/10/14 04:49:00;;;;;;;34.55;18.58;;;10.60;99.90;;;;;;5051696;28;20516;-63
2022/10/14 04:51:26;;;;;;;39.05;19.90;;;10.60;99.90;;;;;;5051318;28;20052;-62
2022/10/14 04:53:52;;;;;;;58.80;20.90;;;10.60;99.90;;;;;;5049845;28;20056;-63
2022/10/14 04:56:17;;;;;;;102.25;23.40;;;10.60;99.90;;;;;;5050842;28;20044;-62
2022/10/14 04:58:43;;;;;;;71.63;22.45;;;10.60;99.90;;;;;;5049994;28;20938;-63
2022/10/14 05:01:08;;;;;;;118.32;24.48;;;10.60;99.90;;;;;;5049249;28;20101;-62
2022/10/14 05:03:34;;;;;;;120.68;26.45;;;10.60;99.90;;;;;;5049565;28;20048;-62
2022/10/14 05:05:59;;;;;;;92.88;22.73;;;10.60;99.90;;;;;;5049793;28;20127;-62
2022/10/14 05:08:25;;;;;;;85.63;22.63;;;10.60;99.90;;;;;;5050363;28;20327;-63
2022/10/14 05:10:51;;;;;;;99.88;23.63;;;10.70;99.90;;;;;;5049998;28;20116;-62
2022/10/14 05:13:17;;;;;;;227.73;30.25;;;10.70;99.90;;;;;;5049685;28;20670;-62
2022/10/14 05:15:43;;;;;;;133.45;24.38;;;10.70;99.90;;;;;;5050081;28;20458;-62
2022/10/14 05:18:11;;;;;;;181.10;28.80;;;10.70;99.90;;;;;;5050259;28;20045;-63
2022/10/14 05:20:37;;;;;;;105.45;22.95;;;10.70;99.90;;;;;;5049904;28;20029;-62
2022/10/14 05:23:03;;;;;;;291.42;32.92;;;10.70;99.90;;;;;;5050283;28;20094;-63
2022/10/14 05:25:29;;;;;;;194.98;29.65;;;10.70;99.90;;;;;;5050674;28;20051;-63
2022/10/14 05:27:55;;;;;;;285.88;31.48;;;10.70;99.90;;;;;;5050653;28;20039;-62
2022/10/14 05:30:21;;;;;;;212.93;28.25;;;10.80;99.90;;;;;;5049229;28;20040;-62
2022/10/14 05:32:46;;;;;;;272.02;33.22;;;10.80;99.90;;;;;;5049721;28;20094;-62
2022/10/14 05:35:12;;;;;;;162.15;28.70;;;10.70;99.90;;;;;;5050354;28;20106;-62
2022/10/14 05:37:38;;;;;;;204.15;31.63;;;10.80;99.90;;;;;;5050482;28;20143;-62
2022/10/14 05:40:04;;;;;;;156.75;28.55;;;10.80;99.90;;;;;;5048975;28;20370;-64
2022/10/14 05:42:30;;;;;;;154.88;27.25;;;10.80;99.90;;;;;;5049655;28;20052;-62
2022/10/14 05:44:55;;;;;;;182.77;30.55;;;10.90;99.90;;;;;;5048361;28;20131;-63
2022/10/14 05:47:21;;;;;;;125.50;28.25;;;10.90;99.90;;;;;;5049046;28;20029;-62
2022/10/14 05:49:46;;;;;;;112.40;27.17;;;10.90;99.90;;;;;;5049294;28;20025;-62
2022/10/14 05:52:12;;;;;;;94.53;26.88;;;10.90;99.90;;;;;;5049282;28;20047;-65
2022/10/14 05:54:38;;;;;;;70.30;25.10;;;10.90;99.90;;;;;;5049536;28;20188;-64
2022/10/14 05:57:04;;;;;;;89.75;27.85;;;11.00;99.90;;;;;;5048903;28;20033;-62
2022/10/14 05:59:30;;;;;;;104.50;29.83;;;11.00;99.90;;;;;;5049623;28;20041;-63
2022/10/14 06:01:56;;;;;;;66.47;24.65;;;11.00;99.90;;;;;;5050097;28;20041;-63
2022/10/14 06:04:21;;;;;;;111.55;28.73;;;11.00;99.90;;;;;;5048424;28;20036;-62
2022/10/14 06:06:47;;;;;;;56.88;25.50;;;11.00;99.90;;;;;;5050090;28;20031;-62
2022/10/14 06:09:13;;;;;;;88.53;26.40;;;11.00;99.90;;;;;;5049161;28;20366;-66
2022/10/14 06:11:39;;;;;;;119.60;28.30;;;11.00;99.90;;;;;;5048507;28;20045;-64
2022/10/14 06:14:05;;;;;;;113.47;30.20;;;11.00;99.90;;;;;;5048331;28;20040;-64
2022/10/14 06:16:30;;;;;;;70.13;25.50;;;11.00;99.90;;;;;;5048097;28;20037;-63
2022/10/14 06:18:56;;;;;;;90.50;28.10;;;11.00;99.90;;;;;;5048921;28;20173;-62
2022/10/14 06:21:22;;;;;;;57.03;24.45;;;11.00;99.90;;;;;;5048781;28;20401;-63
2022/10/14 06:23:48;;;;;;;82.13;27.23;;;11.00;99.90;;;;;;5048281;28;20076;-62
2022/10/14 06:26:13;;;;;;;73.82;23.38;;;11.00;99.90;;;;;;5047686;28;20036;-63
2022/10/14 06:28:39;;;;;;;74.82;26.83;;;11.00;99.90;;;;;;5047060;28;20037;-64
2022/10/14 06:31:05;;;;;;;84.38;26.75;;;11.00;99.90;;;;;;5047571;28;20048;-63
2022/10/14 06:33:31;;;;;;;59.22;25.45;;;11.00;99.90;;;;;;5048750;28;20036;-62
2022/10/14 06:35:56;;;;;;;60.58;26.83;;;11.00;99.90;;;;;;5047691;28;20043;-62
2022/10/14 06:38:22;;;;;;;45.83;25.23;;;11.10;99.90;;;;;;5048727;28;20036;-63
2022/10/14 06:40:52;;;;;;;49.60;24.15;;;11.10;99.90;;;;;;5048304;28;20454;-62
2022/10/14 06:43:18;;;;;;;58.08;26.25;;;11.10;99.90;;;;;;5048535;28;20036;-63
2022/10/14 06:45:44;;;;;;;45.72;25.23;;;11.10;99.90;;;;;;5049214;28;20040;-62
2022/10/14 06:48:09;;;;;;;45.15;25.35;;;11.20;99.90;;;;;;5049448;28;20072;-63
2022/10/14 06:50:35;;;;;;;61.38;28.30;;;11.20;99.90;;;;;;5049506;28;20033;-63
2022/10/14 06:53:01;;;;;;;54.75;28.08;;;11.20;99.90;;;;;;5049659;28;20051;-62
2022/10/14 06:55:26;;;;;;;56.25;26.63;;;11.20;99.90;;;;;;5049642;28;20041;-62
2022/10/14 06:57:52;;;;;;;43.67;24.65;;;11.30;99.90;;;;;;5048406;28;20087;-62
2022/10/14 07:00:18;;;;;;;41.72;24.88;;;11.20;99.90;;;;;;5048456;28;20045;-63
2022/10/14 07:02:43;;;;;;;52.10;27.33;;;11.30;99.90;;;;;;5049539;28;20119;-63
2022/10/14 07:05:09;;;;;;;46.03;24.95;;;11.30;99.90;;;;;;5049640;28;20037;-63
2022/10/14 07:07:35;;;;;;;42.78;24.48;;;11.30;99.90;;;;;;5049030;28;20045;-63
2022/10/14 07:10:00;;;;;;;44.90;24.85;;;11.30;99.90;;;;;;5049100;28;20374;-62
2022/10/14 07:12:26;;;;;;;47.20;26.15;;;11.30;99.90;;;;;;5049131;28;20106;-63
2022/10/14 07:14:52;;;;;;;45.38;26.25;;;11.40;99.90;;;;;;5048801;28;20033;-63
2022/10/14 07:17:17;;;;;;;40.25;24.30;;;11.40;99.90;;;;;;5048996;28;20044;-63
2022/10/14 07:19:43;;;;;;;50.03;28.02;;;11.40;99.90;;;;;;5049111;28;20554;-63
2022/10/14 07:22:08;;;;;;;48.85;28.17;;;11.50;99.90;;;;;;5048630;28;20245;-63
2022/10/14 07:24:34;;;;;;;43.72;26.45;;;11.50;99.90;;;;;;5048643;28;20057;-63
2022/10/14 07:27:00;;;;;;;44.85;26.52;;;11.50;99.90;;;;;;5048184;28;20072;-62
2022/10/14 07:29:26;;;;;;;50.10;29.40;;;11.50;99.90;;;;;;5048499;28;20029;-62
2022/10/14 07:31:52;;;;;;;49.22;29.60;;;11.50;99.90;;;;;;5048533;28;20123;-62
2022/10/14 07:34:17;;;;;;;47.10;28.00;;;11.60;99.90;;;;;;5049533;28;20371;-62
2022/10/14 07:36:43;;;;;;;44.00;27.92;;;11.60;99.90;;;;;;5048918;28;20207;-63
2022/10/14 07:39:09;;;;;;;47.92;29.25;;;11.60;99.90;;;;;;5049296;28;20059;-62
2022/10/14 07:41:35;;;;;;;43.67;28.40;;;11.70;99.90;;;;;;5048584;28;20377;-63
2022/10/14 07:44:05;;;;;;;52.08;29.27;;;11.70;99.90;;;;;;5049147;28;20049;-63
2022/10/14 07:46:32;;;;;;;50.78;30.30;;;11.70;99.90;;;;;;5048757;28;20063;-63
2022/10/14 07:49:10;;;;;;;51.83;30.60;;;11.80;99.90;;;;;;5048322;28;20032;-64
2022/10/14 07:51:37;;;;;;;53.88;31.33;;;11.80;99.90;;;;;;5048360;28;20037;-63
2022/10/14 07:54:08;;;;;;;56.55;32.65;;;11.90;99.90;;;;;;5048951;28;20045;-62
2022/10/14 07:56:35;;;;;;;51.08;32.17;;;11.90;99.90;;;;;;5050145;28;20061;-65
2022/10/14 07:59:01;;;;;;;60.35;32.53;;;11.90;99.90;;;;;;5021572;28;20095;-62
2022/10/14 08:01:26;;;;;;;56.67;33.28;;;11.90;99.90;;;;;;5051524;28;20057;-62
2022/10/14 08:03:52;;;;;;;57.70;33.15;;;11.90;99.90;;;;;;5052536;28;20094;-63
2022/10/14 08:06:18;;;;;;;56.65;32.53;;;11.90;99.90;;;;;;5052140;28;20526;-63
2022/10/14 08:08:44;;;;;;;49.70;31.77;;;11.90;99.90;;;;;;5051558;28;20041;-63
2022/10/14 08:11:16;;;;;;;51.80;31.40;;;11.90;99.90;;;;;;5050985;28;20041;-63
2022/10/14 08:13:42;;;;;;;56.45;32.45;;;11.90;99.90;;;;;;5052364;28;20249;-62
2022/10/14 08:16:20;;;;;;;55.30;32.83;;;11.90;99.90;;;;;;5051449;28;20055;-63
2022/10/14 08:18:46;;;;;;;61.65;33.33;;;11.90;99.90;;;;;;5049746;28;20179;-63
2022/10/14 08:21:13;;;;;;;55.42;32.30;;;11.90;99.90;;;;;;5048642;28;20037;-63
2022/10/14 08:23:39;;;;;;;54.67;32.20;;;12.00;99.90;;;;;;5052070;28;20100;-62
2022/10/14 08:26:26;;;;;;;65.97;33.53;;;12.00;99.90;;;;;;5051878;28;20041;-62
2022/10/14 08:28:52;;;;;;;60.58;32.45;;;12.00;99.90;;;;;;5052454;28;20045;-62
2022/10/14 08:31:18;;;;;;;60.08;32.65;;;12.00;99.90;;;;;;5052041;28;20057;-61
2022/10/14 08:33:44;;;;;;;62.92;34.13;;;12.00;99.90;;;;;;5052028;28;20334;-62
2022/10/14 08:36:10;;;;;;;55.28;32.00;;;12.10;99.90;;;;;;5051564;28;20270;-62
2022/10/14 08:38:35;;;;;;;59.78;32.53;;;12.10;99.90;;;;;;5052138;28;20083;-61
2022/10/14 08:41:13;;;;;;;56.85;31.17;;;12.10;99.90;;;;;;5051644;28;20056;-62
2022/10/14 08:44:06;;;;;;;57.05;31.55;;;12.10;99.90;;;;;;5051318;28;20055;-61
2022/10/14 08:46:40;;;;;;;67.03;31.25;;;12.10;99.90;;;;;;5051483;28;20040;-62
2022/10/14 08:49:16;;;;;;;49.92;27.95;;;12.10;99.90;;;;;;5052150;28;20434;-62
2022/10/14 08:51:53;;;;;;;50.92;29.02;;;12.20;99.90;;;;;;5051394;28;20037;-61
2022/10/14 08:54:33;;;;;;;42.35;26.88;;;12.20;99.90;;;;;;5051885;28;20041;-62
2022/10/14 08:56:59;;;;;;;47.13;27.83;;;12.30;99.90;;;;;;5051739;28;20045;-62
2022/10/14 08:59:25;;;;;;;52.88;29.02;;;12.30;99.90;;;;;;5051809;28;20040;-61
2022/10/14 09:01:57;;;;;;;46.22;26.98;;;12.30;99.90;;;;;;5051348;28;20386;-61
2022/10/14 09:04:22;;;;;;;49.47;27.85;;;12.30;99.90;;;;;;5051592;28;20094;-61
2022/10/14 09:06:49;;;;;;;49.22;27.55;;;12.30;99.90;;;;;;5050603;28;20041;-61
2022/10/14 09:09:29;;;;;;;49.67;26.23;;;12.40;99.90;;;;;;5051387;28;20069;-62
2022/10/14 09:12:02;;;;;;;47.25;26.65;;;12.30;99.90;;;;;;5044908;28;20090;-62
2022/10/14 09:14:38;;;;;;;46.92;24.67;;;12.40;99.90;;;;;;5051579;28;20061;-62
2022/10/14 09:17:17;;;;;;;47.60;25.08;;;12.40;99.90;;;;;;5051242;28;20040;-63
2022/10/14 09:19:51;;;;;;;43.17;22.85;;;12.40;99.90;;;;;;5048039;28;20702;-62
2022/10/14 09:22:17;;;;;;;41.40;23.17;;;12.40;99.90;;;;;;5051413;28;20134;-61
2022/10/14 09:24:45;;;;;;;40.40;23.52;;;12.40;99.90;;;;;;5050979;28;20295;-62
2022/10/14 09:27:21;;;;;;;44.25;23.27;;;12.40;99.90;;;;;;5051049;28;20079;-62
2022/10/14 09:29:55;;;;;;;40.20;21.95;;;12.50;99.90;;;;;;5050710;28;20576;-61
2022/10/14 09:32:40;;;;;;;;;;;12.50;99.90;;;;;;5051780;28;20048;-62
2022/10/14 09:35:24;;;;;;;34.33;20.88;;;12.50;99.90;;;;;;5051200;28;19952;-69
2022/10/14 09:37:50;;;;;;;43.05;22.92;;;12.50;99.90;;;;;;5050452;28;20087;-62
2022/10/14 09:40:28;;;;;;;37.63;21.27;;;12.50;99.90;;;;;;5050368;28;20041;-62
2022/10/14 09:43:07;;;;;;;32.25;19.92;;;12.50;99.90;;;;;;5050800;28;20048;-74
2022/10/14 09:46:01;;;;;;;30.83;19.00;;;12.60;99.90;;;;;;5050338;28;20094;-62
2022/10/14 09:48:46;;;;;;;34.88;19.85;;;12.60;99.90;;;;;;5050846;28;20106;-63
2022/10/14 09:51:23;;;;;;;40.10;21.25;;;12.60;99.90;;;;;;5050587;28;20106;-62
2022/10/14 09:53:52;;;;;;;37.08;19.98;;;12.70;99.90;;;;;;5050377;28;20025;-61
2022/10/14 09:56:32;;;;;;;32.00;18.50;;;12.70;99.90;;;;;;5050423;28;20462;-62
2022/10/14 09:58:58;;;;;;;29.60;18.27;;;12.80;99.90;;;;;;5050448;28;20028;-62
2022/10/14 10:01:26;;;;;;;38.50;19.48;;;12.80;99.90;;;;;;5050529;28;20067;-61
2022/10/14 10:03:53;;;;;;;35.75;19.30;;;12.90;99.90;;;;;;5050486;28;20041;-62
2022/10/14 10:06:22;;;;;;;38.13;20.13;;;12.90;99.90;;;;;;5050470;28;20040;-62
2022/10/14 10:08:54;;;;;;;33.60;18.85;;;12.90;99.90;;;;;;5050426;28;20069;-62
2022/10/14 10:11:37;;;;;;;30.48;18.55;;;13.00;99.90;;;;;;5046478;28;20069;-62
2022/10/14 10:14:26;;;;;;;37.70;20.60;;;13.00;99.90;;;;;;5050634;28;20537;-63
2022/10/14 10:17:06;;;;;;;51.40;27.75;;;13.00;99.90;;;;;;5049594;28;20114;-61
2022/10/14 10:19:34;;;;;;;45.53;24.80;;;13.00;99.90;;;;;;5049599;28;20032;-63
2022/10/14 10:22:18;;;;;;;47.50;29.13;;;13.00;99.90;;;;;;5050370;28;20045;-62
2022/10/14 10:24:47;;;;;;;36.63;21.77;;;13.10;99.90;;;;;;5048481;28;20391;-61
2022/10/14 10:27:34;;;;;;;36.92;22.60;;;13.10;99.90;;;;;;5048722;28;20043;-63
2022/10/14 10:30:27;;;;;;;44.72;24.83;;;13.20;99.90;;;;;;5048852;28;20040;-62
2022/10/14 10:33:24;;;;;;;36.78;22.00;;;13.20;99.90;;;;;;5049760;28;20095;-63
2022/10/14 10:36:18;;;;;;;44.15;25.23;;;13.30;99.90;;;;;;5044580;28;20041;-62
2022/10/14 10:38:59;;;;;;;47.83;27.00;;;13.30;99.90;;;;;;5036204;28;20397;-62
2022/10/14 10:41:52;;;;;;;38.10;22.73;;;13.40;99.90;;;;;;5049408;28;20104;-62
2022/10/14 10:44:29;;;;;;;47.75;25.25;;;13.50;99.90;;;;;;5029924;28;20057;-62
2022/10/14 10:47:32;;;;;;;47.90;24.75;;;13.60;99.90;;;;;;5049423;28;20087;-63
2022/10/14 10:50:23;;;;;;;45.88;25.70;;;13.60;99.90;;;;;;5037958;28;20061;-61
2022/10/14 10:53:23;;;;;;;49.55;25.20;;;13.60;99.90;;;;;;5049522;28;20040;-63
2022/10/14 10:56:08;;;;;;;48.50;26.55;;;13.70;99.90;;;;;;5049879;28;20037;-63
2022/10/14 10:59:05;;;;;;;44.70;25.58;;;13.70;99.90;;;;;;5045201;28;20354;-62
2022/10/14 11:01:42;;;;;;;39.05;24.92;;;13.80;99.90;;;;;;5049708;28;20076;-63
2022/10/14 11:04:07;;;;;;;44.42;25.17;;;13.80;99.90;;;;;;5049788;28;20045;-62
2022/10/14 11:12:52;;;;;;;41.80;25.63;;;13.90;99.90;;;;;;5024426;28;20088;-62
2022/10/14 11:15:33;;;;;;;41.47;24.42;;;13.90;99.90;;;;;;5049819;28;20037;-63
2022/10/14 11:18:13;;;;;;;42.35;23.30;;;13.90;99.90;;;;;;5049799;28;20292;-63
2022/10/14 11:21:09;;;;;;;37.80;22.98;;;14.00;99.90;;;;;;5044901;28;20131;-63
2022/10/14 11:23:58;;;;;;;37.58;22.58;;;14.00;99.90;;;;;;5049366;28;20063;-63
2022/10/14 11:26:52;;;;;;;32.78;20.00;;;14.10;99.90;;;;;;5047344;28;20041;-62
2022/10/14 11:29:20;;;;;;;32.75;19.80;;;14.10;99.90;;;;;;5049893;28;20369;-63
2022/10/14 11:32:02;;;;;;;29.10;18.98;;;14.20;99.90;;;;;;5052626;28;20125;-63
2022/10/14 11:34:42;;;;;;;25.42;17.35;;;14.20;99.90;;;;;;5051322;28;20514;-64
2022/10/14 11:37:17;;;;;;;21.73;15.50;;;14.20;99.90;;;;;;5052408;28;20116;-64
2022/10/14 11:39:52;;;;;;;24.83;17.45;;;14.30;99.90;;;;;;5052633;28;20440;-63
2022/10/14 11:42:17;;;;;;;19.60;14.80;;;14.30;99.90;;;;;;5052105;28;20083;-63
2022/10/14 11:44:43;;;;;;;21.73;15.40;;;14.30;99.90;;;;;;5051396;28;20037;-62
2022/10/14 11:47:28;;;;;;;21.45;14.10;;;14.40;99.90;;;;;;5049909;28;20041;-63
2022/10/14 11:49:58;;;;;;;14.43;12.82;;;14.40;99.90;;;;;;5051452;28;20063;-63
2022/10/14 11:52:51;;;;;;;13.90;12.35;;;14.50;99.90;;;;;;5052323;28;20037;-63
2022/10/14 11:55:22;;;;;;;12.32;10.13;;;14.60;99.90;;;;;;5050981;28;20512;-63
2022/10/14 11:57:52;;;;;;;10.60;9.50;;;14.60;99.90;;;;;;5051412;28;20079;-63
2022/10/14 12:00:37;;;;;;;12.07;9.88;;;14.70;99.90;;;;;;5051424;28;20037;-63
2022/10/14 12:03:19;;;;;;;9.65;8.65;;;14.80;99.90;;;;;;5051491;28;20107;-64
2022/10/14 12:05:48;;;;;;;11.93;9.25;;;14.80;99.90;;;;;;5052184;28;20037;-64
2022/10/14 12:08:39;;;;;;;9.15;8.20;;;14.90;99.90;;;;;;5052118;28;20107;-65
2022/10/14 12:11:26;;;;;;;10.73;8.98;;;14.90;99.90;;;;;;5049361;28;20465;-64
2022/10/14 12:14:09;;;;;;;8.98;7.97;;;15.00;99.90;;;;;;5051613;28;20413;-63
2022/10/14 12:16:39;;;;;;;9.32;8.43;;;15.00;99.90;;;;;;5050012;28;20492;-64
2022/10/14 12:19:08;;;;;;;9.68;8.77;;;15.00;99.90;;;;;;5051784;28;20040;-64
2022/10/14 12:21:53;;;;;;;9.15;8.23;;;15.00;99.90;;;;;;5051392;28;20443;-63
2022/10/14 12:24:20;;;;;;;;;;;15.10;99.90;;;;;;5052327;28;20377;-64
2022/10/14 12:27:00;;;;;;;10.32;8.80;;;15.00;99.90;;;;;;5051361;28;20326;-64
2022/10/14 12:29:44;;;;;;;10.20;9.20;;;15.10;99.90;;;;;;5052028;28;20037;-63
2022/10/14 12:32:15;;;;;;;10.43;9.43;;;15.10;99.90;;;;;;5045150;28;20075;-63
2022/10/14 12:34:42;;;;;;;9.98;8.98;;;15.10;99.90;;;;;;5051673;28;20043;-64
2022/10/14 12:37:23;;;;;;;10.40;9.40;;;15.00;99.90;;;;;;5051308;28;20033;-63
2022/10/14 12:39:53;;;;;;;10.57;9.57;;;15.00;99.90;;;;;;5051394;28;20120;-64
2022/10/14 12:42:20;;;;;;;11.00;9.98;;;15.00;99.90;;;;;;5050656;28;20033;-64
2022/10/14 12:44:50;;;;;;;11.20;10.10;;;15.00;99.90;;;;;;5050486;28;20158;-65
2022/10/14 12:47:36;;;;;;;11.40;10.30;;;15.00;99.90;;;;;;5050341;28;20067;-63
2022/10/14 12:50:06;;;;;;;11.48;10.38;;;15.00;99.90;;;;;;5050142;28;20045;-65
2022/10/14 12:52:36;;;;;;;11.77;10.77;;;15.00;99.90;;;;;;5039697;28;20108;-63